sensor_id;sensor_type;location;lat;lon;timestamp;P1;durP1;ratioP1;P2;durP2;ratioP2
50683;SDS011;36654;45.042;38.994;2022-12-01T00:02:08;5.63;;;3.17;;
50683;SDS011;36654;45.042;38.994;2022-12-01T00:04:34;5.68;;;3.50;;
50683;SDS011;36654;45.042;38.994;2022-12-01T00:07:00;4.55;;;3.38;;
50683;SDS011;36654;45.042;38.994;2022-12-01T00:09:26;5.25;;;3.22;;
50683;SDS011;36654;45.042;38.994;2022-12-01T00:12:10;7.90;;;3.80;;
50683;SDS011;36654;45.042;38.994;2022-12-01T00:14:35;7.25;;;3.08;;
50683;SDS011;36654;45.042;38.994;2022-12-01T00:17:01;8.27;;;3.40;;
50683;SDS011;36654;45.042;38.994;2022-12-01T00:19:29;3.83;;;3.33;;
50683;SDS011;36654;45.042;38.994;2022-12-01T00:21:54;4.38;;;3.17;;
50683;SDS011;36654;45.042;38.994;2022-12-01T00:24:20;5.05;;;3.10;;
50683;SDS011;36654;45.042;38.994;2022-12-01T00:26:47;5.18;;;3.00;;
50683;SDS011;36654;45.042;38.994;2022-12-01T00:29:13;4.93;;;3.38;;
50683;SDS011;36654;45.042;38.994;2022-12-01T00:31:39;4.30;;;3.00;;
50683;SDS011;36654;45.042;38.994;2022-12-01T00:34:05;5.82;;;3.20;;
50683;SDS011;36654;45.042;38.994;2022-12-01T00:36:31;4.72;;;3.20;;
50683;SDS011;36654;45.042;38.994;2022-12-01T00:38:57;3.95;;;3.22;;
50683;SDS011;36654;45.042;38.994;2022-12-01T00:41:24;3.80;;;3.05;;
50683;SDS011;36654;45.042;38.994;2022-12-01T00:43:50;3.88;;;2.65;;
50683;SDS011;36654;45.042;38.994;2022-12-01T00:46:17;5.70;;;3.38;;
50683;SDS011;36654;45.042;38.994;2022-12-01T00:48:42;3.97;;;2.83;;
50683;SDS011;36654;45.042;38.994;2022-12-01T00:51:08;5.38;;;2.95;;
50683;SDS011;36654;45.042;38.994;2022-12-01T00:53:34;2.92;;;2.60;;
50683;SDS011;36654;45.042;38.994;2022-12-01T00:55:59;6.30;;;2.63;;
50683;SDS011;36654;45.042;38.994;2022-12-01T00:58:25;3.08;;;2.78;;
50683;SDS011;36654;45.042;38.994;2022-12-01T01:00:57;5.90;;;3.22;;
50683;SDS011;36654;45.042;38.994;2022-12-01T01:03:25;3.15;;;2.70;;
50683;SDS011;36654;45.042;38.994;2022-12-01T01:05:52;3.97;;;2.88;;
50683;SDS011;36654;45.042;38.994;2022-12-01T01:08:18;3.67;;;2.78;;
50683;SDS011;36654;45.042;38.994;2022-12-01T01:10:44;2.70;;;2.40;;
50683;SDS011;36654;45.042;38.994;2022-12-01T01:13:11;3.63;;;2.67;;
50683;SDS011;36654;45.042;38.994;2022-12-01T01:15:38;3.85;;;2.75;;
50683;SDS011;36654;45.042;38.994;2022-12-01T01:18:05;7.22;;;2.97;;
50683;SDS011;36654;45.042;38.994;2022-12-01T01:20:31;3.75;;;2.80;;
50683;SDS011;36654;45.042;38.994;2022-12-01T01:22:58;5.38;;;3.08;;
50683;SDS011;36654;45.042;38.994;2022-12-01T01:25:23;3.25;;;2.80;;
50683;SDS011;36654;45.042;38.994;2022-12-01T01:27:49;3.25;;;2.47;;
50683;SDS011;36654;45.042;38.994;2022-12-01T01:30:15;4.70;;;2.53;;
50683;SDS011;36654;45.042;38.994;2022-12-01T01:32:41;2.80;;;2.53;;
50683;SDS011;36654;45.042;38.994;2022-12-01T01:35:07;4.40;;;3.30;;
50683;SDS011;36654;45.042;38.994;2022-12-01T01:37:33;2.25;;;2.15;;
50683;SDS011;36654;45.042;38.994;2022-12-01T01:39:58;4.20;;;2.80;;
50683;SDS011;36654;45.042;38.994;2022-12-01T01:42:24;4.57;;;2.80;;
50683;SDS011;36654;45.042;38.994;2022-12-01T01:44:51;3.67;;;2.78;;
50683;SDS011;36654;45.042;38.994;2022-12-01T01:47:18;3.33;;;2.38;;
50683;SDS011;36654;45.042;38.994;2022-12-01T01:49:49;5.18;;;2.75;;
50683;SDS011;36654;45.042;38.994;2022-12-01T01:52:15;2.60;;;2.40;;
50683;SDS011;36654;45.042;38.994;2022-12-01T01:54:43;2.70;;;2.20;;
50683;SDS011;36654;45.042;38.994;2022-12-01T01:57:12;2.60;;;2.40;;
50683;SDS011;36654;45.042;38.994;2022-12-01T01:59:42;3.38;;;2.33;;
50683;SDS011;36654;45.042;38.994;2022-12-01T02:02:12;2.50;;;2.30;;
50683;SDS011;36654;45.042;38.994;2022-12-01T02:04:42;3.08;;;2.83;;
50683;SDS011;36654;45.042;38.994;2022-12-01T02:07:11;2.40;;;2.10;;
50683;SDS011;36654;45.042;38.994;2022-12-01T02:09:41;2.80;;;2.50;;
50683;SDS011;36654;45.042;38.994;2022-12-01T02:12:11;2.83;;;2.50;;
50683;SDS011;36654;45.042;38.994;2022-12-01T02:32:09;3.17;;;2.50;;
50683;SDS011;36654;45.042;38.994;2022-12-01T02:34:45;4.70;;;2.50;;
50683;SDS011;36654;45.042;38.994;2022-12-01T02:37:35;2.85;;;2.38;;
50683;SDS011;36654;45.042;38.994;2022-12-01T02:40:30;4.40;;;2.25;;
50683;SDS011;36654;45.042;38.994;2022-12-01T02:45:53;4.80;;;2.42;;
50683;SDS011;36654;45.042;38.994;2022-12-01T02:48:34;2.53;;;2.33;;
50683;SDS011;36654;45.042;38.994;2022-12-01T02:51:06;3.15;;;2.30;;
50683;SDS011;36654;45.042;38.994;2022-12-01T02:53:36;3.67;;;2.53;;
50683;SDS011;36654;45.042;38.994;2022-12-01T02:56:04;4.68;;;2.60;;
50683;SDS011;36654;45.042;38.994;2022-12-01T02:58:31;3.47;;;2.17;;
50683;SDS011;36654;45.042;38.994;2022-12-01T03:01:07;2.72;;;2.40;;
50683;SDS011;36654;45.042;38.994;2022-12-01T03:03:46;2.53;;;2.33;;
50683;SDS011;36654;45.042;38.994;2022-12-01T03:18:09;4.00;;;3.05;;
50683;SDS011;36654;45.042;38.994;2022-12-01T03:23:22;4.65;;;3.08;;
50683;SDS011;36654;45.042;38.994;2022-12-01T03:25:51;3.55;;;3.10;;
50683;SDS011;36654;45.042;38.994;2022-12-01T03:28:22;6.15;;;3.47;;
50683;SDS011;36654;45.042;38.994;2022-12-01T03:30:54;3.80;;;2.92;;
50683;SDS011;36654;45.042;38.994;2022-12-01T03:33:30;5.38;;;2.90;;
50683;SDS011;36654;45.042;38.994;2022-12-01T03:36:04;4.93;;;3.05;;
50683;SDS011;36654;45.042;38.994;2022-12-01T03:38:30;4.30;;;3.08;;
50683;SDS011;36654;45.042;38.994;2022-12-01T03:41:04;3.33;;;2.75;;
50683;SDS011;36654;45.042;38.994;2022-12-01T03:43:38;7.13;;;2.90;;
50683;SDS011;36654;45.042;38.994;2022-12-01T03:46:17;3.22;;;2.65;;
50683;SDS011;36654;45.042;38.994;2022-12-01T03:48:45;4.05;;;3.20;;
50683;SDS011;36654;45.042;38.994;2022-12-01T03:53:58;3.78;;;3.45;;
50683;SDS011;36654;45.042;38.994;2022-12-01T03:56:31;6.50;;;4.07;;
50683;SDS011;36654;45.042;38.994;2022-12-01T03:59:04;9.05;;;3.47;;
50683;SDS011;36654;45.042;38.994;2022-12-01T04:01:32;7.72;;;3.35;;
50683;SDS011;36654;45.042;38.994;2022-12-01T04:04:05;3.95;;;3.20;;
50683;SDS011;36654;45.042;38.994;2022-12-01T04:06:37;9.73;;;2.88;;
50683;SDS011;36654;45.042;38.994;2022-12-01T04:09:04;9.02;;;4.25;;
50683;SDS011;36654;45.042;38.994;2022-12-01T04:11:30;10.32;;;3.88;;
50683;SDS011;36654;45.042;38.994;2022-12-01T04:14:13;5.75;;;3.40;;
50683;SDS011;36654;45.042;38.994;2022-12-01T04:16:39;11.00;;;3.17;;
50683;SDS011;36654;45.042;38.994;2022-12-01T04:19:05;6.68;;;4.03;;
50683;SDS011;36654;45.042;38.994;2022-12-01T04:21:31;8.40;;;3.80;;
50683;SDS011;36654;45.042;38.994;2022-12-01T04:23:56;7.07;;;3.80;;
50683;SDS011;36654;45.042;38.994;2022-12-01T04:26:25;8.65;;;3.38;;
50683;SDS011;36654;45.042;38.994;2022-12-01T04:28:52;9.57;;;3.33;;
50683;SDS011;36654;45.042;38.994;2022-12-01T04:31:17;7.32;;;2.80;;
50683;SDS011;36654;45.042;38.994;2022-12-01T04:33:43;10.05;;;3.45;;
50683;SDS011;36654;45.042;38.994;2022-12-01T04:36:09;13.13;;;3.72;;
50683;SDS011;36654;45.042;38.994;2022-12-01T04:38:34;7.00;;;3.28;;
50683;SDS011;36654;45.042;38.994;2022-12-01T04:41:06;10.38;;;3.53;;
50683;SDS011;36654;45.042;38.994;2022-12-01T04:43:33;9.85;;;3.80;;
50683;SDS011;36654;45.042;38.994;2022-12-01T04:45:58;8.65;;;3.70;;
50683;SDS011;36654;45.042;38.994;2022-12-01T04:48:24;8.80;;;3.20;;
50683;SDS011;36654;45.042;38.994;2022-12-01T04:50:50;7.13;;;3.63;;
50683;SDS011;36654;45.042;38.994;2022-12-01T04:53:15;8.80;;;3.28;;
50683;SDS011;36654;45.042;38.994;2022-12-01T04:55:41;6.30;;;3.55;;
50683;SDS011;36654;45.042;38.994;2022-12-01T04:58:06;7.03;;;3.55;;
50683;SDS011;36654;45.042;38.994;2022-12-01T05:00:32;8.85;;;2.72;;
50683;SDS011;36654;45.042;38.994;2022-12-01T05:02:58;8.52;;;4.07;;
50683;SDS011;36654;45.042;38.994;2022-12-01T05:05:24;9.88;;;3.33;;
50683;SDS011;36654;45.042;38.994;2022-12-01T05:07:50;7.40;;;3.65;;
50683;SDS011;36654;45.042;38.994;2022-12-01T05:10:16;8.15;;;3.83;;
50683;SDS011;36654;45.042;38.994;2022-12-01T05:12:43;8.10;;;3.42;;
50683;SDS011;36654;45.042;38.994;2022-12-01T05:15:12;11.55;;;3.88;;
50683;SDS011;36654;45.042;38.994;2022-12-01T05:17:38;7.45;;;3.35;;
50683;SDS011;36654;45.042;38.994;2022-12-01T05:20:04;7.50;;;3.83;;
50683;SDS011;36654;45.042;38.994;2022-12-01T05:22:48;8.40;;;3.55;;
50683;SDS011;36654;45.042;38.994;2022-12-01T05:25:16;5.93;;;3.47;;
50683;SDS011;36654;45.042;38.994;2022-12-01T05:27:49;7.07;;;4.00;;
50683;SDS011;36654;45.042;38.994;2022-12-01T05:30:15;10.02;;;3.95;;
50683;SDS011;36654;45.042;38.994;2022-12-01T05:36:00;6.28;;;3.67;;
50683;SDS011;36654;45.042;38.994;2022-12-01T05:38:25;5.95;;;3.33;;
50683;SDS011;36654;45.042;38.994;2022-12-01T05:40:52;6.20;;;3.40;;
50683;SDS011;36654;45.042;38.994;2022-12-01T05:43:19;7.78;;;4.03;;
50683;SDS011;36654;45.042;38.994;2022-12-01T05:45:46;9.70;;;3.88;;
50683;SDS011;36654;45.042;38.994;2022-12-01T05:48:13;10.02;;;3.65;;
50683;SDS011;36654;45.042;38.994;2022-12-01T05:50:39;8.55;;;4.00;;
50683;SDS011;36654;45.042;38.994;2022-12-01T05:53:05;7.18;;;3.65;;
50683;SDS011;36654;45.042;38.994;2022-12-01T05:55:32;11.23;;;3.80;;
50683;SDS011;36654;45.042;38.994;2022-12-01T05:57:59;11.30;;;4.90;;
50683;SDS011;36654;45.042;38.994;2022-12-01T06:00:24;3.35;;;3.05;;
50683;SDS011;36654;45.042;38.994;2022-12-01T06:02:50;9.25;;;3.45;;
50683;SDS011;36654;45.042;38.994;2022-12-01T06:05:16;9.20;;;4.00;;
50683;SDS011;36654;45.042;38.994;2022-12-01T06:10:54;4.07;;;3.53;;
50683;SDS011;36654;45.042;38.994;2022-12-01T06:13:20;8.35;;;3.53;;
50683;SDS011;36654;45.042;38.994;2022-12-01T06:15:54;7.85;;;3.85;;
50683;SDS011;36654;45.042;38.994;2022-12-01T06:18:21;6.70;;;3.65;;
50683;SDS011;36654;45.042;38.994;2022-12-01T06:20:47;5.50;;;3.40;;
50683;SDS011;36654;45.042;38.994;2022-12-01T06:23:12;5.53;;;3.42;;
50683;SDS011;36654;45.042;38.994;2022-12-01T06:25:38;7.63;;;3.55;;
50683;SDS011;36654;45.042;38.994;2022-12-01T06:28:04;6.35;;;3.47;;
50683;SDS011;36654;45.042;38.994;2022-12-01T06:30:29;10.20;;;3.70;;
50683;SDS011;36654;45.042;38.994;2022-12-01T06:32:55;6.43;;;3.55;;
50683;SDS011;36654;45.042;38.994;2022-12-01T06:35:20;5.68;;;3.13;;
50683;SDS011;36654;45.042;38.994;2022-12-01T06:37:46;4.38;;;3.13;;
50683;SDS011;36654;45.042;38.994;2022-12-01T06:40:12;4.97;;;3.42;;
50683;SDS011;36654;45.042;38.994;2022-12-01T06:42:37;7.22;;;3.55;;
50683;SDS011;36654;45.042;38.994;2022-12-01T06:45:03;4.78;;;2.70;;
50683;SDS011;36654;45.042;38.994;2022-12-01T06:47:29;5.43;;;3.33;;
50683;SDS011;36654;45.042;38.994;2022-12-01T06:49:55;6.15;;;3.85;;
50683;SDS011;36654;45.042;38.994;2022-12-01T06:52:20;10.50;;;3.88;;
50683;SDS011;36654;45.042;38.994;2022-12-01T06:54:46;8.75;;;3.58;;
50683;SDS011;36654;45.042;38.994;2022-12-01T06:57:12;10.60;;;4.38;;
50683;SDS011;36654;45.042;38.994;2022-12-01T07:02:32;8.98;;;4.53;;
50683;SDS011;36654;45.042;38.994;2022-12-01T07:04:58;7.80;;;3.65;;
50683;SDS011;36654;45.042;38.994;2022-12-01T07:07:24;9.52;;;4.35;;
50683;SDS011;36654;45.042;38.994;2022-12-01T07:09:49;8.02;;;3.78;;
50683;SDS011;36654;45.042;38.994;2022-12-01T07:12:15;7.18;;;4.95;;
50683;SDS011;36654;45.042;38.994;2022-12-01T07:14:41;7.15;;;3.05;;
50683;SDS011;36654;45.042;38.994;2022-12-01T07:17:07;7.15;;;3.90;;
50683;SDS011;36654;45.042;38.994;2022-12-01T07:19:33;5.03;;;2.53;;
50683;SDS011;36654;45.042;38.994;2022-12-01T07:21:59;5.63;;;3.40;;
50683;SDS011;36654;45.042;38.994;2022-12-01T07:24:25;7.28;;;4.22;;
50683;SDS011;36654;45.042;38.994;2022-12-01T07:26:51;6.13;;;3.92;;
50683;SDS011;36654;45.042;38.994;2022-12-01T07:29:16;4.03;;;2.95;;
50683;SDS011;36654;45.042;38.994;2022-12-01T07:31:42;4.05;;;2.47;;
50683;SDS011;36654;45.042;38.994;2022-12-01T07:34:10;5.70;;;2.80;;
50683;SDS011;36654;45.042;38.994;2022-12-01T07:39:03;5.55;;;2.95;;
50683;SDS011;36654;45.042;38.994;2022-12-01T07:41:30;6.65;;;3.10;;
50683;SDS011;36654;45.042;38.994;2022-12-01T07:43:56;5.30;;;2.70;;
50683;SDS011;36654;45.042;38.994;2022-12-01T07:46:23;4.07;;;2.63;;
50683;SDS011;36654;45.042;38.994;2022-12-01T07:48:50;5.15;;;2.65;;
50683;SDS011;36654;45.042;38.994;2022-12-01T07:51:17;6.82;;;2.70;;
50683;SDS011;36654;45.042;38.994;2022-12-01T07:53:44;5.32;;;3.05;;
50683;SDS011;36654;45.042;38.994;2022-12-01T07:56:12;9.50;;;3.15;;
50683;SDS011;36654;45.042;38.994;2022-12-01T07:58:38;8.75;;;3.22;;
50683;SDS011;36654;45.042;38.994;2022-12-01T08:01:05;9.05;;;3.13;;
50683;SDS011;36654;45.042;38.994;2022-12-01T08:03:32;4.78;;;2.95;;
50683;SDS011;36654;45.042;38.994;2022-12-01T08:05:58;7.85;;;3.28;;
50683;SDS011;36654;45.042;38.994;2022-12-01T08:08:25;8.57;;;3.38;;
50683;SDS011;36654;45.042;38.994;2022-12-01T08:10:52;7.47;;;3.20;;
50683;SDS011;36654;45.042;38.994;2022-12-01T08:13:18;6.25;;;2.58;;
50683;SDS011;36654;45.042;38.994;2022-12-01T08:15:44;4.28;;;2.88;;
50683;SDS011;36654;45.042;38.994;2022-12-01T08:18:10;3.80;;;2.95;;
50683;SDS011;36654;45.042;38.994;2022-12-01T08:20:36;4.60;;;2.20;;
50683;SDS011;36654;45.042;38.994;2022-12-01T08:23:02;9.30;;;2.88;;
50683;SDS011;36654;45.042;38.994;2022-12-01T08:25:28;4.40;;;2.40;;
50683;SDS011;36654;45.042;38.994;2022-12-01T08:27:54;7.45;;;2.97;;
50683;SDS011;36654;45.042;38.994;2022-12-01T08:30:20;6.60;;;3.10;;
50683;SDS011;36654;45.042;38.994;2022-12-01T08:32:46;5.45;;;2.88;;
50683;SDS011;36654;45.042;38.994;2022-12-01T08:35:12;6.35;;;2.70;;
50683;SDS011;36654;45.042;38.994;2022-12-01T08:37:37;3.78;;;2.20;;
50683;SDS011;36654;45.042;38.994;2022-12-01T08:40:03;4.60;;;2.60;;
50683;SDS011;36654;45.042;38.994;2022-12-01T08:42:29;3.67;;;2.38;;
50683;SDS011;36654;45.042;38.994;2022-12-01T08:44:55;2.75;;;2.25;;
50683;SDS011;36654;45.042;38.994;2022-12-01T08:47:21;7.40;;;3.28;;
50683;SDS011;36654;45.042;38.994;2022-12-01T08:49:46;9.85;;;3.17;;
50683;SDS011;36654;45.042;38.994;2022-12-01T08:52:12;4.90;;;2.80;;
50683;SDS011;36654;45.042;38.994;2022-12-01T08:54:37;2.97;;;2.30;;
50683;SDS011;36654;45.042;38.994;2022-12-01T08:57:03;5.53;;;2.85;;
50683;SDS011;36654;45.042;38.994;2022-12-01T08:59:29;6.18;;;3.58;;
50683;SDS011;36654;45.042;38.994;2022-12-01T09:01:54;5.30;;;2.63;;
50683;SDS011;36654;45.042;38.994;2022-12-01T09:04:25;3.63;;;2.58;;
50683;SDS011;36654;45.042;38.994;2022-12-01T09:06:51;4.45;;;2.72;;
50683;SDS011;36654;45.042;38.994;2022-12-01T09:09:23;3.97;;;2.25;;
50683;SDS011;36654;45.042;38.994;2022-12-01T09:11:50;4.80;;;2.35;;
50683;SDS011;36654;45.042;38.994;2022-12-01T09:14:17;3.15;;;2.67;;
50683;SDS011;36654;45.042;38.994;2022-12-01T09:16:45;4.10;;;2.25;;
50683;SDS011;36654;45.042;38.994;2022-12-01T09:19:12;3.97;;;2.65;;
50683;SDS011;36654;45.042;38.994;2022-12-01T09:21:38;5.38;;;2.40;;
50683;SDS011;36654;45.042;38.994;2022-12-01T09:24:05;7.80;;;2.88;;
50683;SDS011;36654;45.042;38.994;2022-12-01T09:26:31;6.00;;;2.80;;
50683;SDS011;36654;45.042;38.994;2022-12-01T09:28:59;6.15;;;2.40;;
50683;SDS011;36654;45.042;38.994;2022-12-01T09:31:28;2.97;;;2.60;;
50683;SDS011;36654;45.042;38.994;2022-12-01T09:33:55;5.72;;;3.05;;
50683;SDS011;36654;45.042;38.994;2022-12-01T09:36:25;4.68;;;2.60;;
50683;SDS011;36654;45.042;38.994;2022-12-01T09:38:51;7.07;;;2.47;;
50683;SDS011;36654;45.042;38.994;2022-12-01T09:41:22;3.55;;;2.75;;
50683;SDS011;36654;45.042;38.994;2022-12-01T09:46:25;3.05;;;2.70;;
50683;SDS011;36654;45.042;38.994;2022-12-01T09:48:55;4.18;;;2.63;;
50683;SDS011;36654;45.042;38.994;2022-12-01T09:51:24;6.13;;;2.67;;
50683;SDS011;36654;45.042;38.994;2022-12-01T09:53:58;7.47;;;2.28;;
50683;SDS011;36654;45.042;38.994;2022-12-01T09:56:26;4.88;;;2.42;;
50683;SDS011;36654;45.042;38.994;2022-12-01T09:58:55;4.85;;;3.00;;
50683;SDS011;36654;45.042;38.994;2022-12-01T10:01:45;8.77;;;3.85;;
50683;SDS011;36654;45.042;38.994;2022-12-01T10:04:16;4.65;;;2.50;;
50683;SDS011;36654;45.042;38.994;2022-12-01T10:06:53;9.95;;;2.85;;
50683;SDS011;36654;45.042;38.994;2022-12-01T10:12:15;8.00;;;2.35;;
50683;SDS011;36654;45.042;38.994;2022-12-01T10:14:44;6.15;;;2.72;;
50683;SDS011;36654;45.042;38.994;2022-12-01T10:20:01;2.42;;;2.20;;
50683;SDS011;36654;45.042;38.994;2022-12-01T10:30:30;7.10;;;3.00;;
50683;SDS011;36654;45.042;38.994;2022-12-01T10:35:44;5.35;;;2.80;;
50683;SDS011;36654;45.042;38.994;2022-12-01T10:38:12;5.07;;;3.45;;
50683;SDS011;36654;45.042;38.994;2022-12-01T10:40:45;8.07;;;4.00;;
50683;SDS011;36654;45.042;38.994;2022-12-01T10:43:14;16.02;;;5.93;;
50683;SDS011;36654;45.042;38.994;2022-12-01T10:45:41;9.05;;;4.50;;
50683;SDS011;36654;45.042;38.994;2022-12-01T10:50:47;6.97;;;4.28;;
50683;SDS011;36654;45.042;38.994;2022-12-01T10:55:57;23.80;;;10.90;;
50683;SDS011;36654;45.042;38.994;2022-12-01T10:58:27;23.13;;;11.15;;
50683;SDS011;36654;45.042;38.994;2022-12-01T11:00:55;21.27;;;9.65;;
50683;SDS011;36654;45.042;38.994;2022-12-01T11:03:27;13.50;;;6.35;;
50683;SDS011;36654;45.042;38.994;2022-12-01T11:05:56;11.02;;;4.32;;
50683;SDS011;36654;45.042;38.994;2022-12-01T11:08:32;10.88;;;5.07;;
50683;SDS011;36654;45.042;38.994;2022-12-01T11:11:04;14.25;;;5.55;;
50683;SDS011;36654;45.042;38.994;2022-12-01T11:13:31;17.35;;;7.93;;
50683;SDS011;36654;45.042;38.994;2022-12-01T11:16:01;15.27;;;6.93;;
50683;SDS011;36654;45.042;38.994;2022-12-01T11:18:36;14.70;;;6.35;;
50683;SDS011;36654;45.042;38.994;2022-12-01T11:23:37;11.75;;;5.63;;
50683;SDS011;36654;45.042;38.994;2022-12-01T11:26:11;10.88;;;4.97;;
50683;SDS011;36654;45.042;38.994;2022-12-01T11:29:02;10.23;;;5.90;;
50683;SDS011;36654;45.042;38.994;2022-12-01T11:31:40;14.07;;;5.15;;
50683;SDS011;36654;45.042;38.994;2022-12-01T11:34:28;12.07;;;5.20;;
50683;SDS011;36654;45.042;38.994;2022-12-01T11:37:02;13.98;;;5.90;;
50683;SDS011;36654;45.042;38.994;2022-12-01T11:39:31;15.70;;;6.57;;
50683;SDS011;36654;45.042;38.994;2022-12-01T11:42:03;13.85;;;6.55;;
50683;SDS011;36654;45.042;38.994;2022-12-01T11:44:54;10.88;;;5.70;;
50683;SDS011;36654;45.042;38.994;2022-12-01T11:47:27;16.15;;;6.35;;
50683;SDS011;36654;45.042;38.994;2022-12-01T11:49:54;11.18;;;4.97;;
50683;SDS011;36654;45.042;38.994;2022-12-01T11:52:27;10.75;;;4.70;;
50683;SDS011;36654;45.042;38.994;2022-12-01T11:55:14;8.15;;;5.00;;
50683;SDS011;36654;45.042;38.994;2022-12-01T11:58:02;10.57;;;4.88;;
50683;SDS011;36654;45.042;38.994;2022-12-01T12:00:29;9.63;;;4.75;;
50683;SDS011;36654;45.042;38.994;2022-12-01T12:03:11;13.60;;;4.85;;
50683;SDS011;36654;45.042;38.994;2022-12-01T12:11:46;8.63;;;4.75;;
50683;SDS011;36654;45.042;38.994;2022-12-01T12:14:30;8.50;;;4.70;;
50683;SDS011;36654;45.042;38.994;2022-12-01T12:22:43;9.25;;;4.07;;
50683;SDS011;36654;45.042;38.994;2022-12-01T12:33:37;7.38;;;4.18;;
50683;SDS011;36654;45.042;38.994;2022-12-01T12:36:34;11.05;;;4.55;;
50683;SDS011;36654;45.042;38.994;2022-12-01T12:41:49;8.52;;;4.47;;
50683;SDS011;36654;45.042;38.994;2022-12-01T12:49:53;8.18;;;3.72;;
50683;SDS011;36654;45.042;38.994;2022-12-01T12:52:34;8.85;;;3.70;;
50683;SDS011;36654;45.042;38.994;2022-12-01T12:55:18;10.30;;;4.20;;
50683;SDS011;36654;45.042;38.994;2022-12-01T12:58:15;12.23;;;5.80;;
50683;SDS011;36654;45.042;38.994;2022-12-01T13:00:48;12.43;;;6.32;;
50683;SDS011;36654;45.042;38.994;2022-12-01T13:08:46;16.00;;;7.65;;
50683;SDS011;36654;45.042;38.994;2022-12-01T13:14:02;15.88;;;7.32;;
50683;SDS011;36654;45.042;38.994;2022-12-01T13:16:46;12.38;;;5.38;;
50683;SDS011;36654;45.042;38.994;2022-12-01T13:19:27;11.73;;;4.70;;
50683;SDS011;36654;45.042;38.994;2022-12-01T13:21:57;10.27;;;4.65;;
50683;SDS011;36654;45.042;38.994;2022-12-01T13:24:26;10.63;;;5.00;;
50683;SDS011;36654;45.042;38.994;2022-12-01T13:26:58;10.05;;;5.10;;
50683;SDS011;36654;45.042;38.994;2022-12-01T13:29:35;10.02;;;4.40;;
50683;SDS011;36654;45.042;38.994;2022-12-01T13:32:04;9.13;;;4.45;;
50683;SDS011;36654;45.042;38.994;2022-12-01T13:34:34;10.23;;;4.78;;
50683;SDS011;36654;45.042;38.994;2022-12-01T13:37:08;11.52;;;4.30;;
50683;SDS011;36654;45.042;38.994;2022-12-01T13:39:35;15.27;;;5.38;;
50683;SDS011;36654;45.042;38.994;2022-12-01T13:44:37;7.80;;;3.65;;
50683;SDS011;36654;45.042;38.994;2022-12-01T13:47:50;8.70;;;4.18;;
50683;SDS011;36654;45.042;38.994;2022-12-01T14:08:52;9.15;;;4.45;;
50683;SDS011;36654;45.042;38.994;2022-12-01T14:11:27;7.68;;;3.90;;
50683;SDS011;36654;45.042;38.994;2022-12-01T14:13:55;10.07;;;3.80;;
50683;SDS011;36654;45.042;38.994;2022-12-01T14:16:24;12.07;;;4.15;;
50683;SDS011;36654;45.042;38.994;2022-12-01T14:24:40;4.95;;;3.15;;
50683;SDS011;36654;45.042;38.994;2022-12-01T14:27:07;8.80;;;3.85;;
50683;SDS011;36654;45.042;38.994;2022-12-01T14:29:38;8.75;;;3.30;;
50683;SDS011;36654;45.042;38.994;2022-12-01T14:34:34;6.47;;;3.47;;
50683;SDS011;36654;45.042;38.994;2022-12-01T14:37:03;10.68;;;3.10;;
50683;SDS011;36654;45.042;38.994;2022-12-01T14:39:31;4.88;;;3.00;;
50683;SDS011;36654;45.042;38.994;2022-12-01T14:42:04;7.15;;;3.10;;
50683;SDS011;36654;45.042;38.994;2022-12-01T14:45:00;4.43;;;2.83;;
50683;SDS011;36654;45.042;38.994;2022-12-01T14:47:28;5.93;;;3.17;;
50683;SDS011;36654;45.042;38.994;2022-12-01T14:50:23;8.82;;;3.25;;
50683;SDS011;36654;45.042;38.994;2022-12-01T14:52:56;5.05;;;3.08;;
50683;SDS011;36654;45.042;38.994;2022-12-01T14:55:32;6.55;;;2.97;;
50683;SDS011;36654;45.042;38.994;2022-12-01T14:58:04;9.23;;;3.03;;
50683;SDS011;36654;45.042;38.994;2022-12-01T15:00:36;11.30;;;4.22;;
50683;SDS011;36654;45.042;38.994;2022-12-01T15:03:12;8.23;;;3.88;;
50683;SDS011;36654;45.042;38.994;2022-12-01T15:05:39;9.15;;;3.05;;
50683;SDS011;36654;45.042;38.994;2022-12-01T15:08:18;4.65;;;2.80;;
50683;SDS011;36654;45.042;38.994;2022-12-01T15:10:51;5.43;;;3.50;;
50683;SDS011;36654;45.042;38.994;2022-12-01T15:15:53;7.78;;;3.97;;
50683;SDS011;36654;45.042;38.994;2022-12-01T15:18:22;6.70;;;3.22;;
50683;SDS011;36654;45.042;38.994;2022-12-01T15:21:00;6.43;;;4.38;;
50683;SDS011;36654;45.042;38.994;2022-12-01T15:23:27;8.65;;;4.18;;
50683;SDS011;36654;45.042;38.994;2022-12-01T15:25:53;7.63;;;3.75;;
50683;SDS011;36654;45.042;38.994;2022-12-01T15:28:21;6.15;;;3.45;;
50683;SDS011;36654;45.042;38.994;2022-12-01T15:30:57;10.40;;;4.70;;
50683;SDS011;36654;45.042;38.994;2022-12-01T15:35:56;6.88;;;3.63;;
50683;SDS011;36654;45.042;38.994;2022-12-01T15:38:35;5.53;;;3.35;;
50683;SDS011;36654;45.042;38.994;2022-12-01T15:41:02;7.18;;;3.67;;
50683;SDS011;36654;45.042;38.994;2022-12-01T15:43:34;5.97;;;3.92;;
50683;SDS011;36654;45.042;38.994;2022-12-01T15:46:13;5.28;;;3.17;;
50683;SDS011;36654;45.042;38.994;2022-12-01T15:48:40;5.15;;;3.00;;
50683;SDS011;36654;45.042;38.994;2022-12-01T15:53:50;8.90;;;3.03;;
50683;SDS011;36654;45.042;38.994;2022-12-01T16:01:48;8.02;;;3.47;;
50683;SDS011;36654;45.042;38.994;2022-12-01T16:06:50;6.22;;;3.75;;
50683;SDS011;36654;45.042;38.994;2022-12-01T16:09:25;7.38;;;3.30;;
50683;SDS011;36654;45.042;38.994;2022-12-01T16:17:44;5.68;;;3.00;;
50683;SDS011;36654;45.042;38.994;2022-12-01T16:22:51;7.47;;;3.05;;
50683;SDS011;36654;45.042;38.994;2022-12-01T16:25:31;5.63;;;3.20;;
50683;SDS011;36654;45.042;38.994;2022-12-01T16:28:00;6.22;;;3.08;;
50683;SDS011;36654;45.042;38.994;2022-12-01T16:30:27;6.95;;;3.70;;
50683;SDS011;36654;45.042;38.994;2022-12-01T16:33:06;5.85;;;3.60;;
50683;SDS011;36654;45.042;38.994;2022-12-01T16:35:40;5.93;;;3.35;;
50683;SDS011;36654;45.042;38.994;2022-12-01T16:38:10;9.68;;;5.03;;
50683;SDS011;36654;45.042;38.994;2022-12-01T16:40:47;6.95;;;3.50;;
50683;SDS011;36654;45.042;38.994;2022-12-01T16:43:18;6.30;;;2.97;;
50683;SDS011;36654;45.042;38.994;2022-12-01T16:45:46;9.10;;;3.53;;
50683;SDS011;36654;45.042;38.994;2022-12-01T16:48:17;6.63;;;3.25;;
50683;SDS011;36654;45.042;38.994;2022-12-01T16:50:44;6.70;;;3.30;;
50683;SDS011;36654;45.042;38.994;2022-12-01T16:53:14;3.28;;;2.70;;
50683;SDS011;36654;45.042;38.994;2022-12-01T16:55:41;9.85;;;3.13;;
50683;SDS011;36654;45.042;38.994;2022-12-01T16:58:11;7.28;;;3.10;;
50683;SDS011;36654;45.042;38.994;2022-12-01T17:00:37;4.72;;;3.15;;
50683;SDS011;36654;45.042;38.994;2022-12-01T17:03:03;5.40;;;2.85;;
50683;SDS011;36654;45.042;38.994;2022-12-01T17:05:30;3.20;;;2.83;;
50683;SDS011;36654;45.042;38.994;2022-12-01T17:07:56;6.78;;;3.05;;
50683;SDS011;36654;45.042;38.994;2022-12-01T17:10:22;6.60;;;2.85;;
50683;SDS011;36654;45.042;38.994;2022-12-01T17:12:48;4.05;;;2.65;;
50683;SDS011;36654;45.042;38.994;2022-12-01T17:15:14;5.82;;;3.10;;
50683;SDS011;36654;45.042;38.994;2022-12-01T17:17:39;10.38;;;2.75;;
50683;SDS011;36654;45.042;38.994;2022-12-01T17:20:05;6.60;;;3.30;;
50683;SDS011;36654;45.042;38.994;2022-12-01T17:22:40;4.65;;;2.60;;
50683;SDS011;36654;45.042;38.994;2022-12-01T17:25:08;5.22;;;2.80;;
50683;SDS011;36654;45.042;38.994;2022-12-01T17:27:47;5.25;;;2.67;;
50683;SDS011;36654;45.042;38.994;2022-12-01T17:30:16;5.25;;;2.75;;
50683;SDS011;36654;45.042;38.994;2022-12-01T17:32:41;3.42;;;2.60;;
50683;SDS011;36654;45.042;38.994;2022-12-01T17:35:07;4.05;;;2.70;;